Latest Observation

42 Stations

15 Minute Data | America/Los_Angeles
as of 9/4/26 8:32 AM PDT
Station Date Time Temp (°F) RH (%) Dew Pt (°F) Wind Spd (mph) Wind Dir (°) Wind Gust (mph) Latest Rain (In) Daily Rain (In) Daily Min Temp (°F) Daily Max Temp (°F) Daily Max Wind (mph)
Elk Mt. Farm 8/13/26 1500 85.6   7.4 - - - - - - - 51.4   1.1 85.6   7.4 -
Upper Lake 9/4/26 0830 51.8   7.2 91   5 49.2   8.7 1.4 ESE | 102 3.5   0.2 0.00 0.00 42.1   16.1 52.4   8.3 5.4   0.9
Scotts Valley 9/4/26 0830 49.9   9.5 94   2 48.3   9.9 0.1 S | 176 1.1   2.3 0.00 0.00 34.8   23.5 52.7   6.9 1.8   4.3
Scotts Valley-South (Bella Vista) 9/4/26 0830 48.2   10.2 97   3 47.5   9.3 1.0 SW | 235 2.9   0.7 0.00 0.00 38.8   18.9 49.4   9.3 4.9   2.5
Kelseyville 9/4/26 0830 48.7   11.9 99   10 48.5   9.0 1.3 SW | 226 2.4   1.8 0.00 0.00 41.1   17.5 50.4   10.5 5.0   3.9
Kelseyville Remote 9/4/26 0830 51.7   10.0 86   6 47.7   7.6 - - - 0.00 0.00 42.2   17.1 51.7   10.0 -
Kelseyville (Clark Drive) 9/4/26 0830 50.6   11.1 - - - - - 0.00 0.00 41.2   15.5 51.2   10.7 -
Kelsey Bench (Oaklea) 9/4/26 0830 51.8   8.0 86   2 47.9   8.5 1.6 SSW | 208 3.2   2.7 0.00 0.00 43.7   12.0 52.9   7.1 6.4   2.9
Smith Lane (Kelseyville-South) 9/4/26 0830 52.4   9.3 98   10 51.7   6.1 0.0 SW | 223 2.1   6.2 0.00 0.01 39.0   19.6 52.4   9.3 2.6   6.7
Bell Hill-West 9/4/26 0830 51.4   9.3 100   1 51.4   8.9 0.9 SSW | 196 2.7   3.4 0.00 0.00 41.1   16.2 52.7   8.5 4.4   6.4
High Valley Ridgeline (Brassfield) 9/3/26 1430 64.3   0.5 52   2 46.4   1.6 12.2 WSW | 242 17.9   7.4 0.00 0.01 55.0   3.7 66.3   0.1 20.5   5.3
Wight Way (Adobe Creek) 9/4/26 0800 46.0   15.0 100   13 46.0   11.1 1.1 ENE | 75 2.4   1.1 0.00 0.00 39.4   16.1 48.2   12.8 3.4   4.8
Ridgeline Top (Brassfield) 9/3/26 1430 66.6   0.4 - - - - - - - 54.8   3.7 69.7   1.1 -
Ridgeline Low (Brassfield) 9/3/26 1430 66.8   0.7 - - - - - - - 56.8   4.6 67.8   0.9 -
Long Valley (Shannon) 6/29/26 1400 84.9   4.6 25   1 44.9   3.2 2.9 ENE | 75 10.2   0.4 0.00 0.00 46.4   0.4 86.9   6.5 13.7   1.8
High Valley Winery 9/3/26 1430 65.6   2.0 49   1 45.9   1.2 9.6 WSW | 238 17.0   7.0 0.00 0.01 57.3   4.2 67.3   2.2 17.0   1.1
Round Mtn Rd. 9/4/26 0630 42.7   16.1 - - - - - - - 42.4   14.6 51.6   7.2 -
Circle O 9/4/26 0830 53.0   4.4 - - - - - - - 38.9   17.1 53.6   4.5 -
Robertsbridge Vineyards 9/4/26 0830 51.2   8.9 98   9 50.6   6.1 - - - - - 38.7   17.6 52.9   7.3 -
Urgency Vineyard 9/4/26 0830 57.3   3.2 72   12 48.6   7.3 2.9 SW | 222 5.9   0.8 0.00 0.00 43.2   12.2 57.3   3.2 6.8   4.7
Red Hills (Beckstoffer) 9/4/26 0830 55.5   4.7 79   11 49.0   8.2 - - - 0.00 0.00 41.4   14.1 55.5   4.9 -
Winters (Shannon) 9/4/26 0830 54.8   4.1 77   9 47.7   7.0 2.6 NW | 306 5.4   0.7 0.00 0.00 37.1   12.9 54.8   4.5 10.4   4.2
Secret Pond (Shannon) 9/4/26 0830 52.7   4.9 78   11 46.0   8.2 3.1 NNW | 330 5.4   0.1 0.00 0.00 41.4   10.4 52.7   5.5 12.5   0.9
Rolling Knolls (Shannon) 9/4/26 0830 52.9   7.2 83   1 47.9   7.4 1.5 WSW | 252 3.4   3.7 0.00 0.00 44.8   6.1 53.6   6.5 13.0   4.2
Lower Lake 9/4/26 0830 56.0   4.1 76   13 48.5   8.2 2.3 WNW | 302 6.1   0.4 0.00 0.00 47.0   5.8 56.0   4.1 14.2   6.4
Adamson Ranch 9/4/26 0830 54.4   7.4 78   5 47.7   9.0 1.5 ESE | 109 3.3   5.9 0.00 0.00 40.6   16.3 54.4   7.4 5.9   6.4
Middletown (Diamond D) 9/4/26 0830 52.0   9.0 95   3 50.5   8.1 0.3 N | 355 2.1   4.8 0.00 0.00 42.1   15.5 52.7   8.4 7.0   4.8
Middletown-West (Domaine Helena) 9/4/26 0830 57.1   2.3 84   10 52.4   5.4 0.3 E | 90 1.9   10.9 0.00 0.00 39.0   16.7 57.1   2.5 11.0   3.5
Middletown-South 9/4/26 0830 57.3   3.2 78   12 50.5   7.2 0.4 ENE | 65 2.4   13.9 0.00 0.00 44.0   12.8 59.1   1.9 3.4   14.4
Jim Davis (Langtry) 9/4/26 0830 53.5   6.6 90   4 50.6   5.3 3.3 SW | 236 5.9   1.4 0.00 0.00 46.0   12.0 54.8   6.0 6.0   14.0
Napa Valley Basin 9/4/26 0830 52.8   9.4 86   4 48.5   8.0 1.5 SSW | 210 2.7   6.9 0.00 0.00 39.4   14.8 54.3   8.1 3.1   7.2
Lower Bohn 9/4/26 0830 55.6   5.4 78   7 48.9   7.6 1.8 WNW | 283 3.8   6.1 0.00 0.00 36.9   20.7 57.6   3.7 4.4   13.3
Upper Bohn-North 9/4/26 0830 55.5   4.8 85   7 51.0   6.8 2.7 WNW | 295 5.2   1.4 0.00 0.00 44.8   11.6 55.5   4.8 5.2   2.8
Snell Peak Blk#9 9/4/26 0830 57.8   2.1 74   17 49.6   7.6 1.5 NW | 320 4.9   0.5 0.00 0.00 48.2   7.6 57.9   2.1 5.6   0.2
Coyote Lake West 9/4/26 0830 57.2   3.5 78   8 50.5   6.2 1.0 WNW | 302 3.1   4.2 0.00 0.00 45.0   10.2 57.2   3.6 4.3   3.2
Coyote Lake Northeast 9/4/26 0830 55.3   6.1 82   3 49.8   6.9 - - - - - 46.4   9.4 56.5   5.0 -
Coyote Lake East 9/4/26 0830 55.2   7.4 82   0 49.7   7.4 - - - - - 40.7   11.4 55.2   7.5 -
Morgan Valley 9/3/26 0745 55.2   2.2 100   0 55.2   2.2 5.8 SSW | 206 8.9   1.9 0.00 0.00 51.6   0.0 56.0   2.3 22.2   5.7
Mine Pit North 9/3/26 0730 55.4   0.0 91   2 52.8   0.5 12.3 SSW | 196 17.9   6.0 - - 52.4   0.3 56.0   0.2 19.0   1.5
Mine Pit South 9/3/26 0730 56.1   1.2 89   2 53.0   1.9 7.3 SSW | 212 12.7   4.8 0.00 0.00 52.5   1.2 56.4   1.1 13.4   0.8
Cow Mountain 9/4/26 0830 45.6   7.0 - - 5.7 WNW | 303 15.3   4.8 0.00 0.01 43.6   5.5 46.6   6.2 17.5   8.3
Ukiah-SE (Ruddick) 9/4/26 0830 49.7   8.6 94   3 48.0   9.3 0.9 SSW | 196 1.9   7.3 0.00 0.00 42.1   14.8 50.4   10.4 3.6   7.1
Max     57.8 100 52.4 5.7 - 15.3 0.00 0.01 48.2 59.1 17.5
Avg     53.0 86 49.1 1.6 - 4.0 0.00 - - - -
Min     45.6 72 46.0 0.0 - 1.1 0.00 0.00 34.8 46.6 1.8